createdAt,value
2023-01-13T00:01:25.894Z,55.29
2023-01-13T00:03:53.566Z,54.93
2023-01-13T00:06:22.539Z,55.00
2023-01-13T00:08:51.924Z,56.28
2023-01-13T00:11:20.711Z,54.44
2023-01-13T00:13:48.022Z,55.26
2023-01-13T00:16:17.866Z,55.06
2023-01-13T00:18:45.393Z,54.80
2023-01-13T00:21:15.213Z,55.94
2023-01-13T00:23:43.740Z,54.67
2023-01-13T00:26:13.967Z,55.81
2023-01-13T00:28:41.262Z,56.29
2023-01-13T00:31:11.057Z,54.71
2023-01-13T00:33:38.564Z,54.82
2023-01-13T00:36:07.434Z,55.41
2023-01-13T00:38:36.750Z,54.64
2023-01-13T00:41:06.530Z,55.26
2023-01-13T00:43:37.065Z,55.44
2023-01-13T00:46:05.701Z,55.42
2023-01-13T00:48:33.919Z,56.04
2023-01-13T00:51:03.420Z,55.83
2023-01-13T00:53:34.410Z,55.41
2023-01-13T00:56:02.156Z,55.46
2023-01-13T00:58:32.426Z,55.32
2023-01-13T01:01:02.364Z,55.03
2023-01-13T01:03:30.082Z,54.96
2023-01-13T01:05:57.968Z,55.09
2023-01-13T01:08:25.295Z,55.11
2023-01-13T01:11:01.384Z,55.00
2023-01-13T01:13:29.101Z,54.88
2023-01-13T01:15:56.478Z,55.20
2023-01-13T01:18:25.717Z,55.79
2023-01-13T01:20:53.000Z,54.81
2023-01-13T01:23:20.376Z,54.70
2023-01-13T01:25:47.660Z,54.36
2023-01-13T01:28:14.921Z,54.71
2023-01-13T01:30:42.810Z,54.60
2023-01-13T01:33:10.083Z,54.58
2023-01-13T01:35:41.375Z,54.63
2023-01-13T01:38:09.073Z,55.48
2023-01-13T01:40:36.568Z,54.82
2023-01-13T01:43:32.548Z,54.45
2023-01-13T01:45:59.950Z,54.82
2023-01-13T01:48:28.372Z,54.30
2023-01-13T01:50:57.309Z,54.68
2023-01-13T01:53:27.301Z,54.46
2023-01-13T01:55:56.056Z,53.92
2023-01-13T01:58:29.132Z,54.54
2023-01-13T02:00:56.513Z,54.29
2023-01-13T02:03:24.302Z,55.69
2023-01-13T02:05:52.551Z,54.46
2023-01-13T02:08:21.222Z,54.38
2023-01-13T02:10:53.584Z,54.62
2023-01-13T02:13:22.674Z,53.71
2023-01-13T02:15:58.125Z,53.95
2023-01-13T02:18:45.268Z,54.91
2023-01-13T02:21:43.342Z,55.06
2023-01-13T02:24:54.743Z,54.59
2023-01-13T02:27:44.059Z,54.24
2023-01-13T02:30:40.712Z,55.68
2023-01-13T02:33:19.877Z,58.45
2023-01-13T02:35:51.576Z,54.33
2023-01-13T02:38:23.769Z,54.35
2023-01-13T02:40:58.652Z,53.89
2023-01-13T02:43:49.565Z,54.29
2023-01-13T02:46:24.864Z,53.38
2023-01-13T02:48:54.389Z,55.05
2023-01-13T02:51:27.004Z,55.15
2023-01-13T02:53:59.753Z,54.44
2023-01-13T02:56:27.949Z,55.32
2023-01-13T02:58:56.804Z,53.77
2023-01-13T03:01:25.913Z,53.94
2023-01-13T03:03:53.286Z,53.75
2023-01-13T03:06:37.041Z,54.53
2023-01-13T03:09:09.629Z,54.81
2023-01-13T03:11:48.716Z,53.23
2023-01-13T03:14:30.153Z,55.18
2023-01-13T03:17:12.196Z,53.85
2023-01-13T03:19:44.475Z,55.28
2023-01-13T03:22:18.962Z,54.05
2023-01-13T03:24:50.697Z,54.46
2023-01-13T03:27:23.409Z,54.89
2023-01-13T03:29:58.072Z,55.32
2023-01-13T03:32:29.799Z,53.89
2023-01-13T03:35:03.142Z,53.80
2023-01-13T03:37:34.246Z,55.64
2023-01-13T03:40:08.105Z,53.95
2023-01-13T03:42:38.278Z,54.12
2023-01-13T03:45:10.684Z,57.83
2023-01-13T03:47:44.673Z,54.26
2023-01-13T03:50:17.700Z,54.08
2023-01-13T03:52:48.926Z,54.50
2023-01-13T03:55:21.034Z,53.59
2023-01-13T03:57:54.551Z,53.59
2023-01-13T04:00:27.184Z,53.57
2023-01-13T04:03:01.134Z,54.96
2023-01-13T04:05:30.160Z,53.45
2023-01-13T04:08:06.723Z,55.83
2023-01-13T04:10:38.566Z,54.80
2023-01-13T04:13:08.939Z,54.18
2023-01-13T04:15:38.989Z,56.75
2023-01-13T04:18:13.057Z,54.39
2023-01-13T04:20:41.661Z,54.03
2023-01-13T04:23:10.142Z,53.40
2023-01-13T04:25:38.072Z,57.37
2023-01-13T04:28:05.566Z,57.33
2023-01-13T04:30:32.970Z,55.04
2023-01-13T04:33:00.195Z,52.96
2023-01-13T04:35:28.900Z,54.20
2023-01-13T04:37:56.224Z,53.17
2023-01-13T04:40:23.663Z,54.88
2023-01-13T04:42:50.961Z,52.55
2023-01-13T04:45:18.177Z,54.08
2023-01-13T04:47:45.991Z,59.28
2023-01-13T04:50:13.307Z,65.44
2023-01-13T04:52:42.039Z,61.91
2023-01-13T04:55:10.578Z,62.96
2023-01-13T04:57:37.924Z,55.45
2023-01-13T05:00:07.997Z,60.87
2023-01-13T05:02:35.207Z,61.94
2023-01-13T05:05:02.478Z,61.57
2023-01-13T05:07:29.798Z,50.43
2023-01-13T05:09:59.819Z,55.07
2023-01-13T05:12:59.547Z,48.58
2023-01-13T05:15:45.354Z,49.46
2023-01-13T05:18:13.128Z,50.76
2023-01-13T05:20:40.566Z,54.08
2023-01-13T05:23:29.202Z,59.53
2023-01-13T05:25:57.963Z,50.53
2023-01-13T05:28:25.498Z,49.04
2023-01-13T05:30:53.049Z,50.92
2023-01-13T05:33:20.842Z,52.28
2023-01-13T05:35:49.326Z,52.36
2023-01-13T05:38:18.137Z,51.93
2023-01-13T05:41:04.437Z,52.20
2023-01-13T05:43:35.036Z,51.84
2023-01-13T05:46:04.393Z,59.11
2023-01-13T05:48:33.874Z,50.62
2023-01-13T05:51:02.418Z,50.28
2023-01-13T05:53:30.406Z,58.58
2023-01-13T05:55:57.841Z,50.37
2023-01-13T05:58:27.771Z,51.65
2023-01-13T06:01:00.924Z,56.71
2023-01-13T06:03:28.266Z,52.07
2023-01-13T06:06:02.351Z,57.18
2023-01-13T06:08:30.184Z,55.42
2023-01-13T06:10:57.652Z,52.49
2023-01-13T06:13:25.570Z,51.18
2023-01-13T06:15:56.703Z,52.81
2023-01-13T06:18:25.889Z,51.62
2023-01-13T06:20:53.178Z,56.83
2023-01-13T06:23:22.683Z,54.68
2023-01-13T06:25:56.738Z,52.93
2023-01-13T06:28:24.705Z,59.31
2023-01-13T06:30:56.380Z,62.20
2023-01-13T06:33:29.465Z,59.98
2023-01-13T06:36:00.803Z,58.79
2023-01-13T06:38:31.058Z,57.92
2023-01-13T06:40:58.364Z,56.36
2023-01-13T06:43:26.152Z,56.16
2023-01-13T06:45:55.569Z,56.27
2023-01-13T06:48:33.230Z,57.20
2023-01-13T06:51:07.787Z,51.80
2023-01-13T06:53:35.179Z,51.73
2023-01-13T06:56:02.484Z,51.28
2023-01-13T06:58:29.823Z,50.53
2023-01-13T07:01:00.749Z,51.58
2023-01-13T07:03:29.676Z,50.65
2023-01-13T07:05:57.137Z,47.43
2023-01-13T07:08:25.033Z,50.37
2023-01-13T07:10:53.196Z,49.77
2023-01-13T07:14:28.858Z,50.42
2023-01-13T07:16:56.118Z,48.83
2023-01-13T07:19:24.869Z,48.71
2023-01-13T07:21:52.804Z,50.41
2023-01-13T07:24:20.737Z,50.46
2023-01-13T07:26:48.231Z,49.72
2023-01-13T07:29:18.650Z,50.10
2023-01-13T07:31:48.303Z,50.38
2023-01-13T07:34:17.474Z,50.65
2023-01-13T07:36:46.398Z,50.84
2023-01-13T07:39:13.637Z,50.55
2023-01-13T07:42:01.154Z,51.00
2023-01-13T07:44:32.758Z,51.33
2023-01-13T07:47:00.165Z,51.26
2023-01-13T07:49:30.188Z,51.52
2023-01-13T07:51:59.163Z,51.28
2023-01-13T07:54:51.565Z,51.34
2023-01-13T07:57:18.884Z,50.57
2023-01-13T07:59:46.491Z,49.22
2023-01-13T08:02:14.435Z,50.42
2023-01-13T08:04:43.101Z,50.58
2023-01-13T08:07:12.045Z,49.38
2023-01-13T08:09:39.508Z,49.74
2023-01-13T08:12:36.342Z,49.25
2023-01-13T08:15:12.240Z,46.66
2023-01-13T08:17:39.980Z,47.25
2023-01-13T08:20:09.632Z,47.30
2023-01-13T08:22:38.522Z,48.14
2023-01-13T08:25:08.620Z,48.83
2023-01-13T08:27:36.115Z,49.55
2023-01-13T08:30:04.676Z,48.04
2023-01-13T08:32:35.558Z,49.35
2023-01-13T08:35:03.017Z,49.73
2023-01-13T08:37:30.545Z,48.58
2023-01-13T08:40:00.510Z,47.81
2023-01-13T08:42:29.462Z,48.41
2023-01-13T08:44:59.811Z,48.31
2023-01-13T08:47:28.258Z,48.34
2023-01-13T08:49:58.987Z,49.14
2023-01-13T08:52:27.010Z,48.80
2023-01-13T08:55:02.850Z,50.40
2023-01-13T08:57:30.591Z,47.64
2023-01-13T08:59:58.953Z,46.71
2023-01-13T09:02:27.363Z,47.28
2023-01-13T09:05:01.252Z,45.82
2023-01-13T09:07:45.310Z,45.08
2023-01-13T09:10:24.655Z,45.34
2023-01-13T09:13:11.189Z,46.88
2023-01-13T09:15:40.170Z,46.62
2023-01-13T09:18:08.396Z,47.65
2023-01-13T09:20:42.211Z,47.64
2023-01-13T09:23:11.432Z,46.74
2023-01-13T09:25:41.661Z,46.34
2023-01-13T09:28:09.099Z,46.89
2023-01-13T09:30:38.462Z,47.66
2023-01-13T09:33:24.706Z,47.24
2023-01-13T09:35:52.205Z,47.56
2023-01-13T09:38:57.307Z,47.38
2023-01-13T09:42:33.299Z,46.82
2023-01-13T09:45:06.096Z,46.10
2023-01-13T09:48:02.738Z,45.99
2023-01-13T09:50:57.408Z,48.33
2023-01-13T09:53:33.140Z,48.15
2023-01-13T09:56:03.129Z,48.01
2023-01-13T09:58:47.166Z,47.94
2023-01-13T10:04:21.850Z,47.66
2023-01-13T10:07:09.031Z,47.90
2023-01-13T10:09:53.895Z,47.39
2023-01-13T10:17:05.337Z,46.14
2023-01-13T10:27:22.940Z,46.71
2023-01-13T10:29:55.712Z,46.67
2023-01-13T10:32:51.282Z,46.80
2023-01-13T10:35:18.949Z,46.48
2023-01-13T10:37:57.856Z,47.13
2023-01-13T10:40:34.415Z,47.52
2023-01-13T10:43:06.764Z,46.96
2023-01-13T10:45:34.321Z,46.41
2023-01-13T10:48:50.222Z,46.36
2023-01-13T10:54:05.942Z,47.16
2023-01-13T10:59:34.559Z,47.16
2023-01-13T11:02:24.819Z,46.35
2023-01-13T11:05:15.559Z,45.91
2023-01-13T11:07:50.668Z,45.93
2023-01-13T11:10:22.462Z,45.88
2023-01-13T11:13:11.327Z,45.71
2023-01-13T11:15:47.513Z,45.95
2023-01-13T11:23:00.453Z,46.08
2023-01-13T11:25:55.039Z,46.26
2023-01-13T11:29:36.039Z,46.57
2023-01-13T11:32:14.965Z,46.44
2023-01-13T11:34:45.955Z,46.35
2023-01-13T11:37:21.645Z,46.24
2023-01-13T11:39:56.401Z,46.19
2023-01-13T11:42:32.517Z,46.11
2023-01-13T11:45:07.447Z,46.03
2023-01-13T11:47:36.790Z,46.13
2023-01-13T11:50:28.694Z,46.01
2023-01-13T11:58:11.693Z,45.84
2023-01-13T12:01:02.965Z,45.69
2023-01-13T12:03:38.267Z,45.84
2023-01-13T12:06:17.716Z,44.84
2023-01-13T12:09:19.038Z,44.97
2023-01-13T12:12:17.816Z,44.99
2023-01-13T12:15:03.095Z,45.00
2023-01-13T12:17:42.409Z,45.46
2023-01-13T12:20:26.546Z,45.26
2023-01-13T12:23:02.917Z,45.09
2023-01-13T12:32:45.770Z,44.39
2023-01-13T12:35:36.355Z,43.82
2023-01-13T12:38:12.341Z,44.93
2023-01-13T12:41:08.101Z,45.91
2023-01-13T12:44:11.504Z,46.04
2023-01-13T12:47:00.348Z,44.75
2023-01-13T12:53:01.643Z,44.75
2023-01-13T12:55:33.493Z,44.92
2023-01-13T12:58:29.248Z,45.88
2023-01-13T13:01:00.714Z,45.97
2023-01-13T13:07:27.301Z,45.97
2023-01-13T13:10:08.061Z,45.96
2023-01-13T13:13:14.482Z,46.12
2023-01-13T13:15:42.358Z,46.09
2023-01-13T13:18:28.959Z,41.36
2023-01-13T13:21:06.779Z,43.33
2023-01-13T13:23:48.574Z,43.87
2023-01-13T13:26:21.067Z,44.07
2023-01-13T13:29:05.824Z,44.13
2023-01-13T13:31:50.087Z,44.94
2023-01-13T13:34:48.605Z,44.58
2023-01-13T13:37:57.160Z,44.56
2023-01-13T13:40:45.436Z,45.07
2023-01-13T13:43:33.802Z,45.10
2023-01-13T13:54:58.619Z,44.67
2023-01-13T13:57:34.383Z,45.16
2023-01-13T14:00:18.288Z,45.13
2023-01-13T14:02:51.098Z,44.67
2023-01-13T14:05:21.913Z,44.87
2023-01-13T14:07:52.075Z,44.88
2023-01-13T14:10:22.468Z,45.04
2023-01-13T14:12:52.930Z,45.15
2023-01-13T14:15:31.516Z,44.10
2023-01-13T14:18:00.610Z,43.97
2023-01-13T14:20:30.535Z,45.25
2023-01-13T14:23:07.278Z,44.80
2023-01-13T14:25:39.570Z,44.64
2023-01-13T14:28:28.907Z,44.84
2023-01-13T14:30:57.517Z,45.30
2023-01-13T14:33:34.247Z,45.67
2023-01-13T14:36:14.011Z,44.67
2023-01-13T14:38:43.030Z,44.89
2023-01-13T14:42:01.344Z,46.33
2023-01-13T14:44:36.765Z,46.25
2023-01-13T14:47:24.000Z,46.73
2023-01-13T14:50:01.203Z,47.58
2023-01-13T14:52:34.845Z,47.39
2023-01-13T14:55:22.236Z,47.40
2023-01-13T14:57:49.868Z,47.45
2023-01-13T15:00:23.917Z,47.53
2023-01-13T15:03:07.763Z,46.74
2023-01-13T15:05:47.793Z,47.26
2023-01-13T15:08:36.426Z,47.19
2023-01-13T15:11:06.722Z,47.24
2023-01-13T15:13:42.564Z,47.44
2023-01-13T15:16:18.019Z,47.61
2023-01-13T15:18:45.819Z,47.61
2023-01-13T15:21:15.683Z,47.76
2023-01-13T15:23:43.407Z,47.88
2023-01-13T15:26:19.451Z,47.81
2023-01-13T15:28:47.397Z,47.83
2023-01-13T15:31:16.353Z,48.01
2023-01-13T15:33:43.829Z,47.81
2023-01-13T15:36:20.936Z,47.92
2023-01-13T15:38:49.330Z,48.10
2023-01-13T15:41:17.118Z,48.08
2023-01-13T15:44:02.855Z,48.38
2023-01-13T15:46:40.595Z,48.13
2023-01-13T15:49:17.304Z,47.99
2023-01-13T15:51:45.161Z,48.43
2023-01-13T15:54:12.859Z,48.73
2023-01-13T15:56:42.216Z,48.19
2023-01-13T15:59:17.610Z,47.84
2023-01-13T16:01:46.576Z,48.79
2023-01-13T16:04:13.968Z,48.67
2023-01-13T16:06:41.486Z,49.06
2023-01-13T16:09:12.744Z,49.02
2023-01-13T16:11:40.098Z,48.42
2023-01-13T16:14:07.478Z,48.08
2023-01-13T16:16:37.291Z,48.67
2023-01-13T16:19:06.449Z,48.42
2023-01-13T16:21:33.824Z,48.77
2023-01-13T16:24:01.120Z,49.07
2023-01-13T16:26:30.153Z,49.39
2023-01-13T16:28:58.844Z,49.29
2023-01-13T16:31:29.228Z,49.20
2023-01-13T16:33:56.762Z,49.61
2023-01-13T16:36:25.671Z,49.59
2023-01-13T16:38:53.764Z,49.72
2023-01-13T16:41:22.077Z,49.09
2023-01-13T16:43:49.505Z,49.33
2023-01-13T16:46:23.259Z,48.79
2023-01-13T16:48:53.169Z,47.09
2023-01-13T16:51:21.237Z,51.49
2023-01-13T16:53:50.780Z,53.88
2023-01-13T16:56:23.257Z,59.60
2023-01-13T16:58:51.452Z,61.10
2023-01-13T17:01:21.907Z,62.61
2023-01-13T17:03:49.847Z,59.91
2023-01-13T17:06:20.246Z,60.30
2023-01-13T17:09:02.977Z,60.30
2023-01-13T17:11:31.946Z,59.18
2023-01-13T17:14:00.011Z,58.32
2023-01-13T17:16:28.328Z,56.43
2023-01-13T17:18:55.972Z,56.38
2023-01-13T17:21:23.337Z,56.48
2023-01-13T17:23:51.691Z,56.37
2023-01-13T17:26:32.450Z,54.32
2023-01-13T17:29:00.843Z,56.02
2023-01-13T17:31:29.690Z,55.64
2023-01-13T17:33:57.126Z,53.88
2023-01-13T17:36:25.794Z,53.60
2023-01-13T17:38:53.218Z,55.43
2023-01-13T17:41:21.043Z,55.30
2023-01-13T17:43:49.793Z,54.61
2023-01-13T17:46:19.471Z,54.71
2023-01-13T17:48:47.222Z,53.80
2023-01-13T17:51:16.652Z,52.84
2023-01-13T17:53:45.698Z,54.01
2023-01-13T17:56:14.944Z,52.91
2023-01-13T17:58:42.818Z,53.03
2023-01-13T18:01:15.165Z,53.67
2023-01-13T18:03:42.856Z,53.56
2023-01-13T18:06:16.375Z,53.28
2023-01-13T18:08:44.133Z,53.44
2023-01-13T18:11:11.474Z,53.30
2023-01-13T18:13:41.378Z,53.65
2023-01-13T18:16:13.154Z,52.86
2023-01-13T18:18:43.485Z,52.87
2023-01-13T18:21:36.699Z,53.18
2023-01-13T18:24:23.049Z,53.29
2023-01-13T18:27:09.112Z,53.22
2023-01-13T18:29:37.629Z,52.83
2023-01-13T18:32:07.695Z,52.78
2023-01-13T18:34:37.074Z,53.14
2023-01-13T18:37:05.622Z,53.29
2023-01-13T18:39:34.855Z,52.32
2023-01-13T18:42:20.875Z,52.52
2023-01-13T18:44:48.274Z,52.65
2023-01-13T18:47:16.152Z,51.94
2023-01-13T18:49:45.657Z,52.54
2023-01-13T18:52:13.334Z,52.30
2023-01-13T18:54:40.741Z,52.60
2023-01-13T18:57:08.371Z,52.78
2023-01-13T18:59:37.049Z,52.85
2023-01-13T19:02:09.257Z,53.61
2023-01-13T19:04:37.165Z,53.41
2023-01-13T19:07:06.120Z,53.40
2023-01-13T19:09:34.236Z,53.33
2023-01-13T19:12:01.748Z,52.01
2023-01-13T19:14:37.547Z,51.78
2023-01-13T19:17:09.424Z,51.65
2023-01-13T19:19:40.706Z,52.17
2023-01-13T19:22:10.735Z,51.92
2023-01-13T19:24:41.942Z,51.79
2023-01-13T19:27:09.934Z,51.43
2023-01-13T19:29:37.427Z,50.96
2023-01-13T19:32:11.464Z,52.87
2023-01-13T19:34:39.522Z,53.54
2023-01-13T19:37:07.111Z,53.17
2023-01-13T19:39:36.533Z,52.90
2023-01-13T19:42:22.302Z,53.12
2023-01-13T19:45:08.321Z,53.25
2023-01-13T19:47:36.800Z,52.65
2023-01-13T19:50:08.565Z,52.35
2023-01-13T19:52:35.987Z,51.54
2023-01-13T19:55:07.602Z,51.87
2023-01-13T19:57:35.002Z,51.69
2023-01-13T20:00:05.406Z,52.02
2023-01-13T20:02:33.102Z,53.34
2023-01-13T20:05:02.120Z,52.24
2023-01-13T20:07:31.246Z,51.49
2023-01-13T20:09:59.043Z,52.26
2023-01-13T20:12:28.797Z,51.37
2023-01-13T20:14:56.276Z,51.64
2023-01-13T20:17:25.707Z,51.66
2023-01-13T20:19:53.956Z,51.86
2023-01-13T20:22:21.559Z,52.60
2023-01-13T20:24:55.009Z,52.29
2023-01-13T20:27:24.472Z,52.32
2023-01-13T20:29:53.547Z,52.33
2023-01-13T20:32:20.975Z,51.87
2023-01-13T20:34:48.530Z,52.39
2023-01-13T20:37:15.917Z,52.13
2023-01-13T20:39:47.115Z,52.91
2023-01-13T20:42:30.180Z,51.81
2023-01-13T20:45:00.375Z,52.31
2023-01-13T20:47:28.852Z,52.71
2023-01-13T20:49:56.918Z,52.36
2023-01-13T20:52:24.784Z,52.41
2023-01-13T20:54:52.144Z,52.30
2023-01-13T20:57:19.699Z,52.18
2023-01-13T20:59:54.131Z,52.30
2023-01-13T21:02:24.507Z,52.55
2023-01-13T21:04:52.004Z,52.04
2023-01-13T21:07:21.224Z,51.73
2023-01-13T21:09:48.681Z,51.30
2023-01-13T21:12:35.300Z,52.35
2023-01-13T21:15:18.091Z,51.99
2023-01-13T21:18:07.082Z,52.11
2023-01-13T21:20:36.082Z,52.83
2023-01-13T21:23:04.310Z,51.82
2023-01-13T21:25:33.967Z,51.71
2023-01-13T21:28:11.363Z,52.03
2023-01-13T21:30:39.486Z,51.84
2023-01-13T21:33:08.374Z,51.95
2023-01-13T21:35:38.972Z,51.23
2023-01-13T21:38:07.000Z,51.61
2023-01-13T21:40:34.567Z,51.75
2023-01-13T21:43:20.521Z,52.30
2023-01-13T21:46:06.399Z,51.60
2023-01-13T21:48:35.226Z,52.91
2023-01-13T21:51:02.527Z,52.42
2023-01-13T21:53:29.866Z,52.52
2023-01-13T21:55:57.227Z,52.31
2023-01-13T21:58:24.748Z,52.57
2023-01-13T22:00:52.390Z,52.12
2023-01-13T22:03:19.858Z,51.95
2023-01-13T22:05:53.691Z,52.23
2023-01-13T22:08:20.969Z,52.12
2023-01-13T22:10:57.904Z,52.85
2023-01-13T22:13:44.819Z,52.74
2023-01-13T22:16:12.297Z,52.20
2023-01-13T22:18:39.649Z,52.19
2023-01-13T22:21:08.770Z,52.89
2023-01-13T22:23:36.143Z,52.60
2023-01-13T22:26:04.401Z,52.15
2023-01-13T22:28:40.489Z,52.28
2023-01-13T22:31:09.605Z,52.31
2023-01-13T22:33:37.202Z,51.98
2023-01-13T22:36:05.071Z,51.47
2023-01-13T22:38:35.101Z,52.01
2023-01-13T22:41:04.402Z,52.46
2023-01-13T22:43:31.702Z,52.43
2023-01-13T22:46:00.017Z,52.09
2023-01-13T22:48:27.809Z,52.10
2023-01-13T22:50:56.589Z,51.56
2023-01-13T22:53:24.067Z,51.74
2023-01-13T22:55:56.567Z,52.10
2023-01-13T22:58:24.073Z,52.82
2023-01-13T23:00:51.790Z,51.87
2023-01-13T23:03:19.521Z,51.82
2023-01-13T23:05:46.926Z,52.67
2023-01-13T23:08:14.718Z,52.25
2023-01-13T23:10:42.161Z,52.40
2023-01-13T23:13:11.345Z,52.34
2023-01-13T23:15:38.700Z,52.60
2023-01-13T23:18:06.126Z,52.27
2023-01-13T23:20:34.230Z,51.72
2023-01-13T23:23:01.624Z,52.65
2023-01-13T23:25:28.993Z,52.08
2023-01-13T23:27:56.515Z,52.27
2023-01-13T23:30:25.260Z,52.06
2023-01-13T23:32:52.937Z,51.90
2023-01-13T23:35:20.317Z,52.20
2023-01-13T23:37:47.656Z,52.06
2023-01-13T23:40:15.141Z,52.38
2023-01-13T23:42:42.676Z,52.23
2023-01-13T23:45:11.625Z,52.18
2023-01-13T23:47:41.269Z,51.67
2023-01-13T23:50:10.419Z,52.12
2023-01-13T23:52:37.824Z,52.43
2023-01-13T23:55:05.996Z,52.16
2023-01-13T23:57:33.440Z,52.11
